Latest Coastal Weather Observations for Low Rocky Point

IDT60701

Issued at 11:22 am EDT Wednesday 4 March 2015 (issued every 10 minutes, with the page automatically refreshed every 10 minutes)

About coastal observations | Map of coastal stations | Coastal observations for TAS | Marine services | Other Formats
Station Details ID: 097080 Name: LOW ROCKY POINT Lat: -42.98 Lon: 145.50 Height: 34.0 m
Data from the previous 72 hours. | See also: Recent months at Low Rocky Point
Date/Time
EDT
Temp

°C
Wind Pressure Rain
since 9am
mm
Weather Cloud Vis
km
Sea
Height
m
Swell
Dir
 
Speed
knots
Gust
knots
hPa Trend Height
m
Period
s
Dir
04/11:14am 14.0 WNW 30 43 1004.6 - 0.4 - - - - - - -
04/11:11am 14.4 NW 28 43 1004.5 - 0.4 - - - - - - -
04/11:09am 15.1 NW 26 37 1004.5 - 0.4 - - - - - - -
04/11:00am 15.3 NW 25 31 1004.5 - 0.4 - - - - - - -
04/10:30am 14.8 NW 28 35 1005.0 - 0.4 - - - - - - -
04/10:04am 13.5 NW 28 38 1004.9 - 0.4 - - - - - - -
04/10:00am 13.4 NW 29 38 1004.8 - 0.4 Recent precip. - - - - - -
04/09:30am 13.6 WNW 29 35 1004.9 - 0.0 - - - - - - -
04/09:00am 13.5 WNW 32 39 1004.6 - 0.8 Rain - - - - - -
04/08:30am 14.5 NW 33 43 1004.0 - 0.6 - - - - - - -
04/08:17am 15.0 NW 34 44 1003.8 - 0.4 - - - - - - -
04/08:00am 15.0 NW 33 41 1004.2 - 0.4 - - - - - - -
04/07:47am 14.8 NW 31 41 1004.1 - 0.4 - - - - - - -
04/07:30am 14.6 NW 32 39 1003.8 - 0.4 - - - - - - -
04/07:22am 14.5 NW 32 42 1003.8 - 0.4 - - - - - - -
04/07:00am 14.4 NW 32 39 1004.0 - 0.4 - - - - - - -
04/06:30am 14.6 NW 35 42 1004.1 - 0.4 - - - - - - -
04/06:03am 14.3 NW 35 45 1004.4 - 0.4 - - - - - - -
04/06:00am 14.1 NW 36 45 1004.3 - 0.4 Recent precip. - - - - - -
04/05:50am 14.3 NW 34 44 1004.3 - 0.4 - - - - - - -
04/05:30am 14.1 NW 31 38 1004.6 - 0.4 - - - - - - -
04/05:14am 13.6 NW 32 42 1004.7 - 0.4 - - - - - - -
04/05:00am 14.1 NW 31 39 1004.9 - 0.2 Recent precip. - - - - - -
04/04:39am 14.0 NW 30 40 1005.1 - 0.2 - - - - - - -
04/04:30am 14.1 NW 33 41 1005.1 - 0.0 - - - - - - -
04/04:20am 14.6 NW 31 41 1005.3 - 0.0 - - - - - - -
04/04:00am 14.1 NW 32 41 1005.6 - 0.0 - - - - - - -
04/03:30am 14.5 NW 34 45 1005.5 - 0.0 - - - - - - -
04/03:10am 14.3 NW 29 41 1005.9 - 0.0 - - - - - - -
04/03:00am 13.6 NW 29 37 1006.1 - 0.0 - - - - - - -
04/02:44am 14.4 NW 33 47 1006.3 - 0.0 - - - - - - -
04/02:30am 14.9 NW 33 41 1006.4 - 0.0 - - - - - - -
04/02:14am 14.7 NW 33 43 1006.7 - 0.0 - - - - - - -
04/02:00am 14.6 NW 31 39 1007.1 - 0.0 - - - - - - -
04/01:30am 13.8 NW 33 43 1007.7 - 0.0 - - - - - - -
04/01:06am 14.8 NW 29 39 1007.9 - 0.0 - - - - - - -
04/01:00am 14.8 NW 29 38 1008.1 - 0.0 - - - - - - -
04/12:30am 14.7 NW 33 40 1008.4 - 0.0 - - - - - - -
04/12:00am 14.4 NW 28 34 1008.9 - 0.0 - - - - - - -
 
Date/Time
EDT
Temp

°C
Wind Pressure Rain
since 9am
mm
Weather Cloud Vis
km
Sea
Height
m
Swell
Dir
 
Speed
knots
Gust
knots
hPa Trend Height
m
Period
s
Dir
03/11:30pm 14.7 NW 28 34 1009.5 - 0.0 - - - - - - -
03/11:00pm 14.8 NW 26 31 1009.9 - 0.0 - - - - - - -
03/10:30pm 14.4 NW 25 31 1010.3 - 0.0 - - - - - - -
03/10:00pm 13.9 NW 25 31 1010.6 - 0.0 - - - - - - -
03/09:34pm 13.5 NW 25 35 1010.9 - 0.0 - - - - - - -
03/09:30pm 12.8 NW 25 31 1011.0 - 0.0 - - - - - - -
03/09:12pm 14.3 NW 24 34 1011.0 - 0.0 - - - - - - -
03/09:00pm 13.8 NW 23 28 1011.1 - 0.0 - - - - - - -
03/08:30pm 13.7 NW 27 34 1011.2 - 0.0 - - - - - - -
03/08:00pm 14.4 NW 24 29 1011.3 - 0.0 - - - - - - -
03/07:30pm 14.5 NW 25 31 1011.5 - 0.0 - - - - - - -
03/07:00pm 14.4 NW 26 31 1011.5 - 0.0 - - - - - - -
03/06:30pm 15.2 NW 24 31 1011.7 - 0.0 - - - - - - -
03/06:00pm 15.4 NW 23 29 1011.9 - 0.0 - - - - - - -
03/05:30pm 16.0 NW 21 27 1012.2 - 0.0 - - - - - - -
03/05:00pm 15.9 NW 21 26 1012.3 - 0.0 - - - - - - -
03/04:30pm 15.9 NW 21 26 1012.7 - 0.0 - - - - - - -
03/04:00pm 16.1 NW 20 26 1013.2 - 0.0 - - - - - - -
03/03:30pm 16.0 NW 20 26 1013.5 - 0.0 - - - - - - -
03/03:00pm 16.1 NW 20 26 1013.7 - 0.0 - - - - - - -
03/02:30pm 16.5 NW 18 23 1014.0 - 0.0 - - - - - - -
03/02:00pm 16.5 NW 18 24 1014.0 - 0.0 - - - - - - -
03/01:30pm 16.6 NW 16 21 1014.3 - 0.0 - - - - - - -
03/01:00pm 15.2 NW 13 19 1014.6 - 0.0 - - - - - - -
03/12:30pm 15.8 NW 12 15 1015.1 - 0.0 - - - - - - -
03/12:00pm 15.1 NW 12 15 1015.5 - 0.0 - - - - - - -
03/11:30am 16.1 WNW 9 13 1015.5 - 0.0 - - - - - - -
03/11:00am 14.9 WNW 11 15 1015.7 - 0.0 - - - - - - -
03/10:30am 14.2 WNW 11 14 1015.7 - 0.0 - - - - - - -
03/10:00am 14.2 W 11 15 1015.5 - 0.0 - - - - - - -
03/09:30am 14.0 W 10 15 1015.2 - 0.0 - - - - - - -
03/09:00am 13.1 W 9 14 1015.1 - 2.2 - - - - - - -
03/08:30am 12.6 WSW 11 14 1015.1 - 2.2 - - - - - - -
03/08:00am 12.3 WSW 11 15 1014.8 - 2.2 - - - - - - -
03/07:30am 12.3 WSW 14 17 1014.5 - 2.2 - - - - - - -
03/07:00am 12.3 WSW 14 19 1014.2 - 2.2 - - - - - - -
03/06:30am 12.5 W 15 20 1013.8 - 2.2 - - - - - - -
03/06:00am 12.6 WSW 16 21 1013.6 - 2.2 - - - - - - -
03/05:30am 12.8 WSW 15 19 1013.4 - 2.2 - - - - - - -
03/05:00am 12.9 WSW 14 19 1013.0 - 2.2 - - - - - - -
03/04:30am 12.9 WSW 13 17 1013.0 - 2.2 - - - - - - -
03/04:00am 13.3 W 18 23 1012.8 - 2.2 Recent precip. - - - - - -
03/03:30am 13.2 WSW 17 23 1012.7 - 2.2 - - - - - - -
03/03:00am 13.2 W 16 21 1012.6 - 2.0 - - - - - - -
03/02:30am 12.9 W 15 19 1012.8 - 2.0 - - - - - - -
03/02:00am 12.3 W 18 23 1012.7 - 2.0 Recent precip. - - - - - -
03/01:30am 12.8 WNW 18 21 1012.7 - 2.0 - - - - - - -
03/01:00am 12.7 WNW 22 27 1012.8 - 1.8 Rain - - - - - -
03/12:30am 12.4 WNW 22 27 1012.8 - 0.6 - - - - - - -
03/12:17am 13.4 NW 28 34 1012.8 - 0.0 - - - - - - -
03/12:12am 15.3 NW 29 39 1012.3 - 0.0 - - - - - - -
03/12:00am 15.3 NW 30 37 1012.0 - 0.0 - - - - - - -
 
Date/Time
EDT
Temp

°C
Wind Pressure Rain
since 9am
mm
Weather Cloud Vis
km
Sea
Height
m
Swell
Dir
 
Speed
knots
Gust
knots
hPa Trend Height
m
Period
s
Dir
02/11:30pm 15.3 NW 29 35 1012.2 - 0.0 - - - - - - -
02/11:00pm 15.2 NW 29 35 1012.5 - 0.0 - - - - - - -
02/10:30pm 14.9 NW 27 33 1012.7 - 0.0 - - - - - - -
02/10:00pm 15.0 NW 29 35 1013.0 - 0.0 - - - - - - -
02/09:30pm 15.0 NW 29 34 1013.0 - 0.0 - - - - - - -
02/09:00pm 14.9 NW 29 37 1013.1 - 0.0 - - - - - - -
02/08:30pm 14.9 NNW 25 31 1012.8 - 0.0 - - - - - - -
02/08:00pm 14.7 NW 28 35 1012.7 - 0.0 - - - - - - -
02/07:30pm 14.7 NW 27 33 1012.5 - 0.0 - - - - - - -
02/07:00pm 14.7 NW 28 35 1012.5 - 0.0 - - - - - - -
02/06:30pm 14.7 NW 28 33 1012.2 - 0.0 - - - - - - -
02/06:00pm 15.1 NW 25 32 1012.5 - 0.0 - - - - - - -
02/05:30pm 15.1 NW 24 29 1012.0 - 0.0 - - - - - - -
02/05:00pm 14.8 NW 23 29 1012.3 - 0.0 - - - - - - -
02/04:30pm 15.1 NW 21 25 1012.5 - 0.0 - - - - - - -
02/04:00pm 15.1 NW 21 28 1012.9 - 0.0 - - - - - - -
02/03:30pm 16.1 NW 19 25 1013.6 - 0.0 - - - - - - -
02/03:00pm 15.3 NW 20 25 1013.8 - 0.0 - - - - - - -
02/02:30pm 16.0 NW 19 24 1014.4 - 0.0 - - - - - - -
02/02:00pm 15.9 NW 17 21 1014.8 - 0.0 - - - - - - -
02/01:30pm 16.0 NNW 16 20 1015.1 - 0.0 - - - - - - -
02/01:00pm 15.4 NNW 15 19 1015.5 - 0.0 - - - - - - -
02/12:30pm 14.7 NNW 13 17 1016.0 - 0.0 - - - - - - -
02/12:00pm 15.1 NNW 12 15 1016.7 - 0.0 - - - - - - -
02/11:30am 14.3 NW 13 16 1017.2 - 0.0 - - - - - - -
02/11:00am 14.2 NNW 9 14 1017.4 - 0.0 - - - - - - -
02/10:30am 14.0 NNW 9 13 1017.6 - 0.0 - - - - - - -
02/10:00am 13.7 NNW 7 11 1017.5 - 0.0 - - - - - - -
02/09:30am 13.1 N 10 14 1017.3 - 0.0 - - - - - - -
02/09:00am 12.4 NNE 11 15 1017.6 - 1.6 - - - - - - -
02/08:30am 10.4 NNE 11 14 1017.6 - 1.6 - - - - - - -
02/08:00am 9.6 NNE 11 15 1017.7 - 1.6 - - - - - - -
02/07:30am 9.3 NNE 10 13 1017.5 - 1.6 - - - - - - -
02/07:00am 9.1 NNE 11 14 1017.3 - 1.6 - - - - - - -
02/06:30am 9.0 NNE 11 13 1017.1 - 1.6 - - - - - - -
02/06:00am 9.0 NNE 10 12 1017.3 - 1.6 - - - - - - -
02/05:30am 9.2 NNE 11 13 1017.5 - 1.6 - - - - - - -
02/05:00am 8.9 N 11 13 1017.8 - 1.6 - - - - - - -
02/04:30am 8.5 NNE 11 12 1017.8 - 1.6 - - - - - - -
02/04:00am 8.1 NNE 11 13 1017.8 - 1.6 - - - - - - -
02/03:30am 8.4 NNE 11 12 1017.7 - 1.6 - - - - - - -
02/03:00am 8.8 NNE 10 12 1017.8 - 1.6 - - - - - - -
02/02:30am 9.0 N 8 10 1017.9 - 1.6 - - - - - - -
02/02:00am 9.6 N 8 9 1018.2 - 1.6 - - - - - - -
02/01:30am 9.6 N 8 11 1018.2 - 1.6 - - - - - - -
02/01:00am 9.4 NNE 9 10 1018.3 - 1.6 - - - - - - -
02/12:30am 10.9 W 8 10 1018.0 - 1.6 - - - - - - -
02/12:00am 10.6 NW 7 11 1018.1 - 1.6 - - - - - - -
 
Date/Time
EDT
Temp

°C
Wind Pressure Rain
since 9am
mm
Weather Cloud Vis
km
Sea
Height
m
Swell
Dir
 
Speed
knots
Gust
knots
hPa Trend Height
m
Period
s
Dir
01/11:30pm 11.2 WNW 6 9 1018.0 - 1.6 - - - - - - -
01/11:00pm 11.4 WSW 3 5 1018.3 - 1.6 - - - - - - -
01/10:30pm 11.2 WSW 3 6 1018.3 - 1.6 - - - - - - -
01/10:00pm 10.8 SW 5 8 1018.3 - 1.6 - - - - - - -
01/09:30pm 10.9 SW 6 9 1018.1 - 1.6 - - - - - - -
01/09:00pm 11.2 SW 7 11 1018.0 - 1.6 - - - - - - -
01/08:30pm 10.8 SSW 8 10 1017.4 - 1.6 - - - - - - -
01/08:00pm 11.3 SW 10 13 1017.5 - 1.6 - - - - - - -
01/07:30pm 12.1 SW 12 17 1017.0 - 1.6 - - - - - - -
01/07:00pm 12.4 WSW 11 15 1016.8 - 1.6 - - - - - - -
01/06:30pm 12.6 WSW 11 15 1016.4 - 1.6 - - - - - - -
01/06:00pm 12.9 SW 10 14 1015.8 - 1.6 - - - - - - -
01/05:30pm 14.3 SW 10 15 1015.7 - 1.6 - - - - - - -
01/05:00pm 14.4 SW 11 15 1015.4 - 1.6 - - - - - - -
01/04:30pm 14.9 WSW 9 12 1015.3 - 1.6 - - - - - - -
01/04:00pm 15.7 WSW 10 15 1014.8 - 1.6 - - - - - - -
01/03:30pm 15.3 WSW 13 17 1014.6 - 1.6 - - - - - - -
01/03:00pm 15.1 WSW 13 17 1014.3 - 1.6 - - - - - - -
01/02:30pm 15.2 SW 14 19 1013.9 - 1.6 - - - - - - -
01/02:00pm 16.1 SW 15 20 1013.3 - 1.6 - - - - - - -
01/01:30pm 15.3 SW 17 24 1012.9 - 1.6 - - - - - - -
01/01:00pm 14.3 SW 17 23 1012.5 - 1.6 - - - - - - -
01/12:30pm 14.2 SW 18 26 1012.2 - 1.6 - - - - - - -
01/12:00pm 13.9 SW 17 24 1011.7 - 1.6 Recent precip. - - - - - -
01/11:30am 12.7 SW 18 25 1011.1 - 1.6 - - - - - - -

Other Formats:

Comma delimited format used in spreadsheet applications
http://www.bom.gov.au/fwo/IDT60701/IDT60701.95961.axf

JavaScript Object Notation format (JSON) in row-major order
http://www.bom.gov.au/fwo/IDT60701/IDT60701.95961.json